createdAt,value
2023-05-02T00:03:58.192Z,6.18
2023-05-02T00:09:00.753Z,6.00
2023-05-02T00:14:02.506Z,6.35
2023-05-02T00:19:04.240Z,6.18
2023-05-02T00:24:06.654Z,6.55
2023-05-02T00:29:08.834Z,5.70
2023-05-02T00:34:10.719Z,5.75
2023-05-02T00:39:12.920Z,5.43
2023-05-02T00:44:14.972Z,6.28
2023-05-02T00:49:16.760Z,5.75
2023-05-02T00:54:18.544Z,5.60
2023-05-02T00:59:20.758Z,5.28
2023-05-02T01:04:32.201Z,6.05
2023-05-02T01:14:55.940Z,6.55
2023-05-02T01:20:01.548Z,5.30
2023-05-02T01:25:21.825Z,6.47
2023-05-02T01:30:26.930Z,6.40
2023-05-02T01:35:30.671Z,5.82
2023-05-02T01:40:34.648Z,5.90
2023-05-02T01:45:38.037Z,6.38
2023-05-02T01:50:43.186Z,7.35
2023-05-02T01:55:46.510Z,6.60
2023-05-02T02:00:49.235Z,6.50
2023-05-02T02:05:53.064Z,7.50
2023-05-02T02:11:00.219Z,7.05
2023-05-02T02:16:05.145Z,8.52
2023-05-02T02:21:09.450Z,7.20
2023-05-02T02:26:13.658Z,7.50
2023-05-02T02:31:15.971Z,7.15
2023-05-02T02:36:28.266Z,8.23
2023-05-02T02:41:40.880Z,7.93
2023-05-02T02:46:51.567Z,8.30
2023-05-02T02:52:12.358Z,8.43
2023-05-02T02:57:41.243Z,7.72
2023-05-02T03:02:46.787Z,7.85
2023-05-02T03:07:48.832Z,9.48
2023-05-02T03:12:50.825Z,9.93
2023-05-02T03:17:52.971Z,9.25
2023-05-02T03:22:54.906Z,10.95
2023-05-02T03:27:58.923Z,9.45
2023-05-02T03:33:01.824Z,9.65
2023-05-02T03:38:03.820Z,9.55
2023-05-02T03:43:05.715Z,9.35
2023-05-02T03:48:07.849Z,8.63
2023-05-02T03:53:10.184Z,8.82
2023-05-02T03:58:12.140Z,8.10
2023-05-02T04:03:14.464Z,8.20
2023-05-02T04:08:17.239Z,9.18
2023-05-02T04:13:19.169Z,8.20
2023-05-02T04:18:21.187Z,8.00
2023-05-02T04:23:23.482Z,8.43
2023-05-02T04:28:25.321Z,9.85
2023-05-02T04:33:27.131Z,8.20
2023-05-02T04:38:29.369Z,9.93
2023-05-02T04:43:31.130Z,9.60
2023-05-02T04:48:33.889Z,8.55
2023-05-02T04:53:35.675Z,9.32
2023-05-02T04:58:37.728Z,10.25
2023-05-02T05:03:40.154Z,12.85
2023-05-02T05:08:42.015Z,12.02
2023-05-02T05:13:43.848Z,8.93
2023-05-02T05:18:45.552Z,9.68
2023-05-02T05:23:47.653Z,9.00
2023-05-02T05:28:50.604Z,10.50
2023-05-02T05:33:52.422Z,9.25
2023-05-02T05:38:54.359Z,9.60
2023-05-02T05:43:56.603Z,10.18
2023-05-02T05:48:58.562Z,9.77
2023-05-02T05:54:00.362Z,10.50
2023-05-02T05:59:02.168Z,9.75
2023-05-02T06:04:05.339Z,8.60
2023-05-02T06:09:07.551Z,9.73
2023-05-02T06:14:11.668Z,7.65
2023-05-02T06:19:13.655Z,7.22
2023-05-02T06:24:15.525Z,8.52
2023-05-02T06:29:17.356Z,8.55
2023-05-02T06:34:19.529Z,7.05
2023-05-02T06:39:21.424Z,8.18
2023-05-02T06:44:23.420Z,8.20
2023-05-02T06:49:26.744Z,8.50
2023-05-02T06:54:28.519Z,8.23
2023-05-02T06:59:30.393Z,8.75
2023-05-02T07:04:32.768Z,9.07
2023-05-02T07:09:35.108Z,9.70
2023-05-02T07:14:36.836Z,9.60
2023-05-02T07:19:38.750Z,8.98
2023-05-02T07:24:42.066Z,9.63
2023-05-02T07:29:44.044Z,10.40
2023-05-02T07:34:46.748Z,9.25
2023-05-02T07:39:48.705Z,10.05
2023-05-02T07:44:50.553Z,9.73
2023-05-02T07:49:53.289Z,8.82
2023-05-02T07:54:55.621Z,8.30
2023-05-02T07:59:57.464Z,8.82
2023-05-02T08:04:59.481Z,8.95
2023-05-02T08:10:01.976Z,9.40
2023-05-02T08:15:08.406Z,9.85
2023-05-02T08:20:10.640Z,9.50
2023-05-02T08:25:12.493Z,11.25
2023-05-02T08:30:14.613Z,10.98
2023-05-02T08:35:16.341Z,11.00
2023-05-02T08:40:24.652Z,9.80
2023-05-02T08:45:39.878Z,10.13
2023-05-02T08:50:45.352Z,9.18
2023-05-02T08:55:48.347Z,8.60
2023-05-02T09:00:52.446Z,9.13
2023-05-02T09:06:18.560Z,10.35
2023-05-02T09:11:21.451Z,9.07
2023-05-02T09:16:25.921Z,8.27
2023-05-02T09:21:43.405Z,9.00
2023-05-02T09:26:57.100Z,8.35
2023-05-02T09:31:58.921Z,7.75
2023-05-02T09:37:01.581Z,8.23
2023-05-02T09:42:03.579Z,9.25
2023-05-02T09:47:07.136Z,8.90
2023-05-02T09:52:14.270Z,7.93
2023-05-02T09:57:16.371Z,6.70
2023-05-02T10:02:18.979Z,6.88
2023-05-02T10:07:21.200Z,7.82
2023-05-02T10:12:26.139Z,8.30
2023-05-02T10:17:42.413Z,7.78
2023-05-02T10:22:46.147Z,7.15
2023-05-02T10:27:48.496Z,7.18
2023-05-02T10:32:51.988Z,8.38
2023-05-02T10:37:54.380Z,8.55
2023-05-02T10:42:57.650Z,7.13
2023-05-02T10:48:22.707Z,7.13
2023-05-02T10:53:39.536Z,7.00
2023-05-02T10:58:43.370Z,5.47
2023-05-02T11:03:59.398Z,5.70
2023-05-02T11:09:15.186Z,6.50
2023-05-02T11:14:26.156Z,6.38
2023-05-02T11:24:44.771Z,6.53
2023-05-02T11:29:54.012Z,5.75
2023-05-02T11:34:56.267Z,5.70
2023-05-02T11:40:14.006Z,5.85
2023-05-02T11:45:16.680Z,5.65
2023-05-02T11:50:18.622Z,5.28
2023-05-02T11:55:20.333Z,5.00
2023-05-02T12:00:28.068Z,5.75
2023-05-02T12:05:30.376Z,8.10
2023-05-02T12:10:37.528Z,11.35
2023-05-02T12:15:39.508Z,10.25
2023-05-02T12:20:41.566Z,11.55
2023-05-02T12:25:43.754Z,12.48
2023-05-02T12:30:48.370Z,12.35
2023-05-02T12:35:51.249Z,12.60
2023-05-02T12:40:57.740Z,13.25
2023-05-02T12:46:12.345Z,14.00
2023-05-02T12:51:28.879Z,13.15
2023-05-02T12:56:34.690Z,11.95
2023-05-02T13:01:36.597Z,10.90
2023-05-02T13:06:38.545Z,8.32
2023-05-02T13:11:40.447Z,5.90
2023-05-02T13:16:42.266Z,5.03
2023-05-02T13:21:44.552Z,5.47
2023-05-02T13:26:46.749Z,4.85
2023-05-02T13:31:48.702Z,4.40
2023-05-02T13:36:50.525Z,4.63
2023-05-02T13:41:52.302Z,3.97
2023-05-02T13:46:54.146Z,3.78
2023-05-02T13:51:56.045Z,3.35
2023-05-02T13:56:58.003Z,2.80
2023-05-02T14:02:00.040Z,3.38
2023-05-02T14:07:02.266Z,3.15
2023-05-02T14:12:04.261Z,5.20
2023-05-02T14:17:06.317Z,5.03
2023-05-02T14:22:08.095Z,4.72
2023-05-02T14:27:18.092Z,4.95
2023-05-02T14:32:19.961Z,5.27
2023-05-02T14:37:21.892Z,5.53
2023-05-02T14:42:23.893Z,5.22
2023-05-02T14:47:30.823Z,4.97
2023-05-02T14:52:32.638Z,4.85
2023-05-02T14:57:34.831Z,5.93
2023-05-02T15:02:36.888Z,5.40
2023-05-02T15:07:39.147Z,5.63
2023-05-02T15:12:40.885Z,5.25
2023-05-02T15:17:42.889Z,4.35
2023-05-02T15:22:44.708Z,3.97
2023-05-02T15:27:46.605Z,3.92
2023-05-02T15:32:48.506Z,3.25
2023-05-02T15:37:50.389Z,3.35
2023-05-02T15:42:52.399Z,3.33
2023-05-02T15:47:54.205Z,4.45
2023-05-02T15:52:56.202Z,3.17
2023-05-02T15:57:57.919Z,3.97
2023-05-02T16:03:00.804Z,5.68
2023-05-02T16:08:03.998Z,5.47
2023-05-02T16:13:06.298Z,5.80
2023-05-02T16:18:08.494Z,6.88
2023-05-02T16:23:10.862Z,5.70
2023-05-02T16:28:12.710Z,5.72
2023-05-02T16:33:14.540Z,5.53
2023-05-02T16:38:16.454Z,6.75
2023-05-02T16:43:18.267Z,6.38
2023-05-02T16:48:22.864Z,6.07
2023-05-02T16:53:24.963Z,6.03
2023-05-02T16:58:29.165Z,10.25
2023-05-02T17:03:31.233Z,8.50
2023-05-02T17:08:33.313Z,10.93
2023-05-02T17:13:35.304Z,22.08
2023-05-02T17:18:37.411Z,6.45
2023-05-02T17:23:39.504Z,5.75
2023-05-02T17:28:44.949Z,7.05
2023-05-02T17:33:47.578Z,5.93
2023-05-02T17:38:49.350Z,7.72
2023-05-02T17:43:51.611Z,8.10
2023-05-02T17:48:53.372Z,9.30
2023-05-02T17:53:55.731Z,6.80
2023-05-02T17:58:57.560Z,5.20
2023-05-02T18:03:59.745Z,5.05
2023-05-02T18:09:01.748Z,5.90
2023-05-02T18:14:06.008Z,6.93
2023-05-02T18:19:08.318Z,9.65
2023-05-02T18:24:10.614Z,7.15
2023-05-02T18:29:12.484Z,8.65
2023-05-02T18:34:14.260Z,5.68
2023-05-02T18:39:16.179Z,4.63
2023-05-02T18:44:18.008Z,5.90
2023-05-02T18:49:20.409Z,5.45
2023-05-02T18:54:23.522Z,24.38
2023-05-02T18:59:25.368Z,4.45
2023-05-02T19:04:31.354Z,4.25
2023-05-02T19:09:33.266Z,4.80
2023-05-02T19:14:39.710Z,4.85
2023-05-02T19:19:41.908Z,4.25
2023-05-02T19:24:43.866Z,4.20
2023-05-02T19:29:47.144Z,4.97
2023-05-02T19:34:48.968Z,6.10
2023-05-02T19:39:50.716Z,3.97
2023-05-02T19:44:52.544Z,3.72
2023-05-02T19:49:54.742Z,3.60
2023-05-02T19:54:56.637Z,3.90
2023-05-02T19:59:58.409Z,3.60
2023-05-02T20:05:00.163Z,4.00
2023-05-02T20:10:02.401Z,4.22
2023-05-02T20:15:05.244Z,4.10
2023-05-02T20:20:08.451Z,4.18
2023-05-02T20:25:11.960Z,4.00
2023-05-02T20:30:13.872Z,3.38
2023-05-02T20:35:16.159Z,4.15
2023-05-02T20:40:19.125Z,4.93
2023-05-02T20:45:24.321Z,5.28
2023-05-02T20:50:26.590Z,4.43
2023-05-02T20:55:28.597Z,10.23
2023-05-02T21:00:30.471Z,7.05
2023-05-02T21:05:32.210Z,3.65
2023-05-02T21:10:34.291Z,3.67
2023-05-02T21:15:36.430Z,4.63
2023-05-02T21:20:39.688Z,4.63
2023-05-02T21:25:41.476Z,5.20
2023-05-02T21:30:43.292Z,3.95
2023-05-02T21:35:45.101Z,3.97
2023-05-02T21:40:46.916Z,5.28
2023-05-02T21:45:50.053Z,3.75
2023-05-02T21:50:51.861Z,3.70
2023-05-02T21:55:54.929Z,3.00
2023-05-02T22:00:57.245Z,3.63
2023-05-02T22:06:04.901Z,3.40
2023-05-02T22:11:10.682Z,2.92
2023-05-02T22:16:12.635Z,3.63
2023-05-02T22:21:15.955Z,3.15
2023-05-02T22:26:17.829Z,3.53
2023-05-02T22:31:19.758Z,3.28
2023-05-02T22:36:21.609Z,3.17
2023-05-02T22:41:23.482Z,3.80
2023-05-02T22:46:25.335Z,4.20
2023-05-02T22:51:27.240Z,4.65
2023-05-02T22:56:29.114Z,4.30
2023-05-02T23:01:31.156Z,4.50
2023-05-02T23:06:33.008Z,4.03
2023-05-02T23:11:34.848Z,4.20
2023-05-02T23:16:36.794Z,3.30
2023-05-02T23:21:38.590Z,3.22
2023-05-02T23:26:41.501Z,3.03
2023-05-02T23:31:43.835Z,3.40
2023-05-02T23:36:46.958Z,4.38
2023-05-02T23:41:48.764Z,4.53
2023-05-02T23:46:50.856Z,5.07
2023-05-02T23:51:52.679Z,4.15
2023-05-02T23:56:54.541Z,3.10
